createdAt,value
2018-02-10T00:02:00.205Z,108.93
2018-02-10T00:04:28.097Z,98.53
2018-02-10T00:06:55.691Z,103.83
2018-02-10T00:09:23.321Z,106.00
2018-02-10T00:11:50.886Z,95.17
2018-02-10T00:14:18.521Z,92.20
2018-02-10T00:16:46.179Z,101.70
2018-02-10T00:19:13.782Z,119.47
2018-02-10T00:21:42.124Z,94.67
2018-02-10T00:24:09.944Z,107.53
2018-02-10T00:26:37.565Z,102.33
2018-02-10T00:29:05.136Z,105.13
2018-02-10T00:31:32.742Z,102.00
2018-02-10T00:34:00.396Z,103.50
2018-02-10T00:36:28.121Z,105.47
2018-02-10T00:38:56.619Z,110.37
2018-02-10T00:41:24.242Z,102.23
2018-02-10T00:43:51.858Z,115.87
2018-02-10T00:46:19.431Z,112.00
2018-02-10T00:48:47.051Z,110.47
2018-02-10T00:51:14.617Z,104.33
2018-02-10T00:53:42.244Z,116.73
2018-02-10T00:56:09.829Z,119.10
2018-02-10T00:58:37.409Z,118.37
2018-02-10T01:01:05.009Z,114.13
2018-02-10T01:03:32.655Z,115.67
2018-02-10T01:06:00.233Z,100.50
2018-02-10T01:08:27.813Z,105.70
2018-02-10T01:10:55.425Z,100.60
2018-02-10T01:13:22.992Z,107.47
2018-02-10T01:15:50.606Z,111.13
2018-02-10T01:18:18.193Z,119.77
2018-02-10T01:20:45.826Z,109.57
2018-02-10T01:23:13.394Z,99.17
2018-02-10T01:25:40.972Z,115.70
2018-02-10T01:28:08.593Z,120.10
2018-02-10T01:30:36.167Z,122.80
2018-02-10T01:33:03.749Z,128.43
2018-02-10T01:35:31.377Z,111.37
2018-02-10T01:37:59.718Z,119.10
2018-02-10T01:40:27.294Z,114.60
2018-02-10T01:42:54.912Z,119.60
2018-02-10T01:45:22.489Z,118.53
2018-02-10T01:47:50.063Z,128.17
2018-02-10T01:50:21.544Z,121.40
2018-02-10T01:52:49.156Z,124.37
2018-02-10T01:55:16.769Z,130.77
2018-02-10T01:57:44.352Z,128.70
2018-02-10T02:00:11.969Z,119.67
2018-02-10T02:02:39.550Z,110.07
2018-02-10T02:05:07.921Z,109.10
2018-02-10T02:07:36.269Z,113.07
2018-02-10T02:10:03.886Z,108.07
2018-02-10T02:12:31.453Z,113.30
2018-02-10T02:14:59.075Z,103.43
2018-02-10T02:17:26.696Z,109.87
2018-02-10T02:19:54.314Z,101.77
2018-02-10T02:22:21.949Z,114.83
2018-02-10T02:24:49.516Z,113.27
2018-02-10T02:27:17.114Z,113.27
2018-02-10T02:29:44.727Z,110.07
2018-02-10T02:32:12.292Z,106.83
2018-02-10T02:34:39.866Z,114.77
2018-02-10T02:37:07.479Z,110.43
2018-02-10T02:39:35.061Z,112.90
2018-02-10T02:42:02.670Z,108.40
2018-02-10T02:44:30.249Z,108.37
2018-02-10T02:46:57.866Z,109.10
2018-02-10T02:49:25.441Z,111.07
2018-02-10T02:51:53.069Z,105.43
2018-02-10T02:54:20.652Z,109.83
2018-02-10T02:56:48.231Z,119.33
2018-02-10T02:59:16.606Z,110.53
2018-02-10T03:01:44.970Z,126.43
2018-02-10T03:04:12.592Z,113.60
2018-02-10T03:06:40.164Z,112.73
2018-02-10T03:09:07.790Z,102.70
2018-02-10T03:11:35.399Z,105.93
2018-02-10T03:14:02.980Z,119.23
2018-02-10T03:16:30.590Z,115.83
2018-02-10T03:18:58.169Z,120.77
2018-02-10T03:21:25.788Z,116.03
2018-02-10T03:23:53.361Z,108.57
2018-02-10T03:26:20.946Z,105.93
2018-02-10T03:28:48.570Z,114.10
2018-02-10T03:31:16.915Z,119.30
2018-02-10T03:33:44.497Z,109.20
2018-02-10T03:36:12.104Z,111.57
2018-02-10T03:38:39.674Z,127.87
2018-02-10T03:41:07.299Z,113.67
2018-02-10T03:43:34.892Z,119.40
2018-02-10T03:46:02.471Z,116.23
2018-02-10T03:48:30.089Z,121.70
2018-02-10T03:50:57.699Z,116.87
2018-02-10T03:53:25.275Z,115.03
2018-02-10T03:55:52.890Z,121.67
2018-02-10T03:58:20.510Z,107.60
2018-02-10T04:00:48.851Z,121.33
2018-02-10T04:03:16.422Z,109.93
2018-02-10T04:05:44.050Z,115.60
2018-02-10T04:08:11.665Z,109.00
2018-02-10T04:10:39.239Z,115.33
2018-02-10T04:13:06.860Z,113.27
2018-02-10T04:15:34.469Z,113.93
2018-02-10T04:18:02.037Z,109.20
2018-02-10T04:20:29.649Z,114.70
2018-02-10T04:22:57.249Z,110.17
2018-02-10T04:25:25.596Z,124.70
2018-02-10T04:27:53.222Z,137.03
2018-02-10T04:30:20.790Z,144.10
2018-02-10T04:32:48.365Z,123.40
2018-02-10T04:35:15.980Z,112.00
2018-02-10T04:37:43.602Z,115.13
2018-02-10T04:40:11.174Z,110.47
2018-02-10T04:42:39.611Z,120.53
2018-02-10T04:45:07.252Z,108.07
2018-02-10T04:47:34.823Z,101.43
2018-02-10T04:50:02.473Z,100.20
2018-02-10T04:52:30.075Z,94.23
2018-02-10T04:54:57.706Z,103.27
2018-02-10T04:57:25.271Z,106.73
2018-02-10T04:59:52.848Z,100.60
2018-02-10T05:02:20.461Z,112.50
2018-02-10T05:04:48.034Z,123.63
2018-02-10T05:07:16.376Z,111.13
2018-02-10T05:09:43.993Z,114.80
2018-02-10T05:12:11.564Z,131.90
2018-02-10T05:14:39.183Z,130.10
2018-02-10T05:17:06.762Z,142.77
2018-02-10T05:19:34.392Z,136.13
2018-02-10T05:22:01.973Z,132.20
2018-02-10T05:24:29.551Z,134.47
2018-02-10T05:26:57.168Z,138.40
2018-02-10T05:29:24.743Z,127.67
2018-02-10T05:31:53.134Z,139.27
2018-02-10T05:34:21.466Z,142.60
2018-02-10T05:36:49.057Z,133.90
2018-02-10T05:39:16.665Z,141.07
2018-02-10T05:41:44.244Z,139.40
2018-02-10T05:44:11.832Z,126.57
2018-02-10T05:46:39.462Z,120.63
2018-02-10T05:49:07.041Z,127.03
2018-02-10T05:51:34.628Z,128.33
2018-02-10T05:54:02.244Z,128.00
2018-02-10T05:56:29.821Z,125.17
2018-02-10T05:58:57.429Z,139.20
2018-02-10T06:01:25.038Z,120.60
2018-02-10T06:03:52.646Z,121.47
2018-02-10T06:06:20.221Z,118.63
2018-02-10T06:08:47.823Z,131.00
2018-02-10T06:11:15.446Z,124.27
2018-02-10T06:13:43.032Z,116.63
2018-02-10T06:16:10.602Z,132.70
2018-02-10T06:18:38.222Z,115.33
2018-02-10T06:21:06.559Z,103.60
2018-02-10T06:23:34.147Z,118.37
2018-02-10T06:26:02.545Z,122.53
2018-02-10T06:28:30.131Z,116.00
2018-02-10T06:30:57.744Z,108.10
2018-02-10T06:33:25.377Z,109.60
2018-02-10T06:35:52.945Z,113.47
2018-02-10T06:38:20.510Z,109.73
2018-02-10T06:40:48.138Z,127.97
2018-02-10T06:43:15.719Z,108.03
2018-02-10T06:45:43.289Z,107.63
2018-02-10T06:48:10.890Z,110.60
2018-02-10T06:50:38.473Z,110.93
2018-02-10T06:53:06.080Z,115.37
2018-02-10T06:55:33.644Z,105.10
2018-02-10T06:58:01.260Z,119.83
2018-02-10T07:00:28.835Z,104.87
2018-02-10T07:02:56.452Z,104.93
2018-02-10T07:05:24.790Z,92.17
2018-02-10T07:07:52.353Z,118.30
2018-02-10T07:10:19.966Z,106.80
2018-02-10T07:12:47.542Z,113.20
2018-02-10T07:15:15.155Z,104.90
2018-02-10T07:17:42.720Z,104.70
2018-02-10T07:20:11.200Z,109.27
2018-02-10T07:22:38.794Z,114.70
2018-02-10T07:25:06.364Z,119.50
2018-02-10T07:27:33.978Z,105.47
2018-02-10T07:30:01.553Z,109.73
2018-02-10T07:32:29.921Z,95.07
2018-02-10T07:34:57.501Z,105.87
2018-02-10T07:37:25.100Z,99.70
2018-02-10T07:39:52.676Z,100.87
2018-02-10T07:42:20.298Z,105.90
2018-02-10T07:44:47.864Z,95.97
2018-02-10T07:47:15.918Z,103.93
2018-02-10T07:49:43.563Z,92.73
2018-02-10T07:52:11.531Z,99.00
2018-02-10T07:54:39.803Z,91.50
2018-02-10T07:57:07.874Z,108.20
2018-02-10T07:59:36.039Z,101.27
2018-02-10T08:02:04.303Z,104.47
2018-02-10T08:04:33.100Z,84.83
2018-02-10T08:07:01.375Z,95.17
2018-02-10T08:09:29.396Z,89.23
2018-02-10T08:11:57.453Z,94.83
2018-02-10T08:14:25.723Z,103.40
2018-02-10T08:16:54.125Z,98.33
2018-02-10T08:19:21.689Z,93.90
2018-02-10T08:21:49.296Z,97.80
2018-02-10T08:24:19.884Z,92.40
2018-02-10T08:26:49.608Z,84.33
2018-02-10T08:29:17.177Z,89.10
2018-02-10T08:31:44.787Z,89.77
2018-02-10T08:34:12.394Z,94.30
2018-02-10T08:36:39.964Z,87.27
2018-02-10T08:39:07.573Z,81.27
2018-02-10T08:41:35.947Z,86.23
2018-02-10T08:44:03.559Z,85.07
2018-02-10T08:46:31.139Z,77.90
2018-02-10T08:48:58.760Z,83.93
2018-02-10T08:51:26.331Z,80.53
2018-02-10T08:53:53.894Z,80.87
2018-02-10T08:56:23.738Z,71.87
2018-02-10T08:58:52.599Z,78.93
2018-02-10T09:01:20.737Z,79.47
2018-02-10T09:03:48.895Z,73.00
2018-02-10T09:06:18.498Z,76.37
2018-02-10T09:08:46.640Z,74.40
2018-02-10T09:11:14.799Z,70.57
2018-02-10T09:13:43.659Z,71.73
2018-02-10T09:16:11.679Z,70.83
2018-02-10T09:18:40.510Z,73.93
2018-02-10T09:21:08.548Z,70.87
2018-02-10T09:23:36.688Z,69.33
2018-02-10T09:26:04.782Z,76.97
2018-02-10T09:28:32.859Z,71.07
2018-02-10T09:31:00.874Z,63.63
2018-02-10T09:33:29.097Z,71.73
2018-02-10T09:35:57.079Z,72.27
2018-02-10T09:38:25.256Z,70.87
2018-02-10T09:40:53.309Z,69.23
2018-02-10T09:43:20.929Z,74.73
2018-02-10T09:45:48.534Z,71.83
2018-02-10T09:48:16.288Z,71.63
2018-02-10T09:50:43.870Z,73.77
2018-02-10T09:53:11.815Z,67.83
2018-02-10T09:55:39.449Z,63.70
2018-02-10T09:58:07.004Z,71.10
2018-02-10T10:00:34.612Z,70.57
2018-02-10T10:03:02.182Z,66.80
2018-02-10T10:05:29.790Z,72.13
2018-02-10T10:07:57.344Z,74.10
2018-02-10T10:10:24.951Z,63.37
2018-02-10T10:12:52.558Z,69.17
2018-02-10T10:15:20.165Z,65.80
2018-02-10T10:17:48.488Z,68.40
2018-02-10T10:20:16.058Z,76.60
2018-02-10T10:22:43.669Z,75.73
2018-02-10T10:25:11.279Z,68.63
2018-02-10T10:27:38.856Z,73.00
2018-02-10T10:30:06.417Z,75.63
2018-02-10T10:32:34.020Z,79.03
2018-02-10T10:35:01.592Z,83.50
2018-02-10T10:37:29.198Z,78.93
2018-02-10T10:39:56.769Z,84.50
2018-02-10T10:42:24.370Z,78.07
2018-02-10T10:44:51.929Z,81.23
2018-02-10T10:47:19.539Z,85.43
2018-02-10T10:49:47.151Z,82.97
2018-02-10T10:52:14.723Z,83.47
2018-02-10T10:54:42.340Z,86.90
2018-02-10T10:57:10.717Z,79.73
2018-02-10T10:59:39.041Z,85.00
2018-02-10T11:02:06.685Z,75.90
2018-02-10T11:04:34.242Z,81.30
2018-02-10T11:07:01.830Z,82.60
2018-02-10T11:09:29.398Z,85.40
2018-02-10T11:11:57.002Z,89.80
2018-02-10T11:14:25.373Z,86.50
2018-02-10T11:16:52.988Z,78.17
2018-02-10T11:19:20.543Z,80.87
2018-02-10T11:21:48.114Z,85.17
2018-02-10T11:24:15.760Z,91.47
2018-02-10T11:26:43.754Z,90.07
2018-02-10T11:29:11.763Z,95.20
2018-02-10T11:31:39.955Z,87.33
2018-02-10T11:34:07.593Z,87.73
2018-02-10T11:36:35.171Z,84.57
2018-02-10T11:39:02.783Z,82.07
2018-02-10T11:41:30.384Z,91.03
2018-02-10T11:43:57.951Z,93.70
2018-02-10T11:46:26.331Z,85.30
2018-02-10T11:48:54.682Z,82.93
2018-02-10T11:51:22.611Z,87.70
2018-02-10T11:53:50.840Z,88.37
2018-02-10T11:56:19.177Z,80.97
2018-02-10T11:58:46.794Z,78.30
2018-02-10T12:01:16.286Z,79.77
2018-02-10T12:03:44.349Z,80.90
2018-02-10T12:06:12.001Z,78.80
2018-02-10T12:08:39.604Z,78.60
2018-02-10T12:11:07.939Z,86.57
2018-02-10T12:13:35.548Z,74.47
2018-02-10T12:16:03.107Z,78.00
2018-02-10T12:18:30.668Z,72.73
2018-02-10T12:20:59.037Z,71.40
2018-02-10T12:23:27.765Z,70.83
2018-02-10T12:25:57.236Z,73.97
2018-02-10T12:28:26.419Z,77.63
2018-02-10T12:30:55.754Z,76.87
2018-02-10T12:33:24.038Z,72.60
2018-02-10T12:35:52.132Z,77.30
2018-02-10T12:38:21.180Z,64.53
2018-02-10T12:40:49.404Z,75.07
2018-02-10T12:43:17.893Z,71.27
2018-02-10T12:45:45.462Z,73.70
2018-02-10T12:51:11.937Z,69.77
2018-02-10T12:53:39.562Z,67.80
2018-02-10T12:56:07.177Z,66.47
2018-02-10T12:58:34.745Z,65.40
2018-02-10T13:01:02.338Z,61.10
2018-02-10T13:03:29.945Z,59.57
2018-02-10T13:05:57.504Z,61.03
2018-02-10T13:08:25.064Z,58.43
2018-02-10T13:10:52.670Z,59.97
2018-02-10T13:13:20.245Z,50.53
2018-02-10T13:15:47.890Z,59.80
2018-02-10T13:18:15.445Z,54.40
2018-02-10T13:20:43.527Z,51.73
2018-02-10T13:23:11.669Z,53.43
2018-02-10T13:25:39.959Z,53.20
2018-02-10T13:28:08.079Z,46.23
2018-02-10T13:30:36.122Z,52.67
2018-02-10T13:33:04.186Z,51.30
2018-02-10T13:35:32.202Z,51.07
2018-02-10T13:38:01.147Z,50.37
2018-02-10T13:40:30.162Z,48.83
2018-02-10T13:42:58.610Z,46.17
2018-02-10T13:45:26.647Z,44.63
2018-02-10T13:47:54.303Z,45.57
2018-02-10T13:50:21.866Z,40.20
2018-02-10T13:52:49.510Z,46.27
2018-02-10T13:55:17.159Z,49.90
2018-02-10T13:57:45.290Z,47.97
2018-02-10T14:00:13.449Z,49.73
2018-02-10T14:02:42.197Z,52.97
2018-02-10T14:05:10.970Z,52.57
2018-02-10T14:07:38.625Z,47.30
2018-02-10T14:10:06.183Z,45.17
2018-02-10T14:12:33.783Z,47.80
2018-02-10T14:15:01.447Z,48.93
2018-02-10T14:17:29.672Z,43.87
2018-02-10T14:19:57.825Z,43.30
2018-02-10T14:22:26.673Z,47.00
2018-02-10T14:24:54.965Z,46.43
2018-02-10T14:27:22.956Z,45.53
2018-02-10T14:29:50.992Z,46.30
2018-02-10T14:32:19.895Z,45.80
2018-02-10T14:34:48.982Z,45.53
2018-02-10T14:37:16.952Z,51.60
2018-02-10T14:39:45.035Z,45.40
2018-02-10T14:42:12.653Z,46.03
2018-02-10T14:44:40.225Z,50.30
2018-02-10T14:47:07.840Z,48.00
2018-02-10T14:49:35.410Z,45.97
2018-02-10T14:52:03.026Z,52.73
2018-02-10T14:54:31.070Z,48.30
2018-02-10T14:56:59.175Z,49.80
2018-02-10T14:59:27.173Z,44.90
2018-02-10T15:01:55.306Z,54.60
2018-02-10T15:04:23.386Z,45.00
2018-02-10T15:06:51.526Z,47.33
2018-02-10T15:09:21.411Z,48.67
2018-02-10T15:11:49.075Z,51.43
2018-02-10T15:14:17.247Z,43.30
2018-02-10T15:16:46.166Z,49.43
2018-02-10T15:19:14.205Z,50.70
2018-02-10T15:21:42.275Z,44.30
2018-02-10T15:24:10.310Z,49.90
2018-02-10T15:26:39.043Z,43.93
2018-02-10T15:29:07.296Z,46.00
2018-02-10T15:31:46.997Z,43.13
2018-02-10T15:34:27.528Z,53.00
2018-02-10T15:36:55.558Z,52.70
2018-02-10T15:39:23.760Z,48.37
2018-02-10T15:41:52.688Z,53.00
2018-02-10T15:44:20.341Z,48.07
2018-02-10T15:46:48.379Z,50.73
2018-02-10T15:49:16.427Z,53.30
2018-02-10T15:51:44.370Z,52.37
2018-02-10T15:54:12.013Z,53.33
2018-02-10T15:56:39.612Z,50.17
2018-02-10T15:59:07.168Z,50.07
2018-02-10T16:01:34.765Z,57.83
2018-02-10T16:04:02.776Z,53.87
2018-02-10T16:06:30.887Z,59.40
2018-02-10T16:08:58.832Z,55.63
2018-02-10T16:11:26.417Z,49.00
2018-02-10T16:13:54.052Z,49.57
2018-02-10T16:16:22.907Z,48.40
2018-02-10T16:18:50.943Z,45.77
2018-02-10T16:21:18.914Z,48.70
2018-02-10T16:23:47.249Z,48.77
2018-02-10T16:26:15.285Z,49.20
2018-02-10T16:28:45.223Z,50.23
2018-02-10T16:31:13.169Z,48.63
2018-02-10T16:33:40.790Z,55.73
2018-02-10T16:36:09.165Z,46.43
2018-02-10T16:38:37.597Z,52.00
2018-02-10T16:41:05.210Z,47.63
2018-02-10T16:43:32.810Z,50.50
2018-02-10T16:46:00.791Z,53.10
2018-02-10T16:48:29.781Z,52.87
2018-02-10T16:50:58.501Z,57.53
2018-02-10T16:53:26.150Z,57.83
2018-02-10T16:55:54.233Z,56.03
2018-02-10T16:58:22.373Z,54.00
2018-02-10T17:00:50.486Z,54.03
2018-02-10T17:03:18.120Z,51.90
2018-02-10T17:05:46.457Z,56.70
2018-02-10T17:08:14.246Z,52.67
2018-02-10T17:10:41.837Z,52.33
2018-02-10T17:13:09.412Z,49.37
2018-02-10T17:15:37.034Z,52.40
2018-02-10T17:18:04.987Z,45.37
2018-02-10T17:20:34.838Z,46.83
2018-02-10T17:23:02.928Z,50.03
2018-02-10T17:25:30.947Z,58.27
2018-02-10T17:28:00.057Z,60.10
2018-02-10T17:30:27.642Z,72.77
2018-02-10T17:32:55.268Z,53.60
2018-02-10T17:35:22.869Z,53.23
2018-02-10T17:37:50.632Z,56.47
2018-02-10T17:40:18.241Z,56.27
2018-02-10T17:42:45.799Z,56.27
2018-02-10T17:45:13.408Z,58.03
2018-02-10T17:47:40.973Z,57.70
2018-02-10T17:50:08.584Z,64.10
2018-02-10T17:52:36.147Z,55.73
2018-02-10T17:55:03.761Z,59.50
2018-02-10T17:57:31.332Z,60.53
2018-02-10T17:59:59.274Z,53.47
2018-02-10T18:02:27.962Z,51.20
2018-02-10T18:04:56.826Z,53.13
2018-02-10T18:07:24.945Z,49.27
2018-02-10T18:09:52.888Z,53.10
2018-02-10T18:12:20.491Z,50.40
2018-02-10T18:14:48.093Z,56.60
2018-02-10T18:17:15.664Z,57.43
2018-02-10T18:19:43.264Z,59.43
2018-02-10T18:22:10.869Z,57.40
2018-02-10T18:24:38.433Z,53.73
2018-02-10T18:27:06.061Z,58.00
2018-02-10T18:29:33.630Z,51.27
2018-02-10T18:32:01.746Z,52.40
2018-02-10T18:34:30.595Z,64.00
2018-02-10T18:37:00.217Z,64.77
2018-02-10T18:39:29.044Z,74.37
2018-02-10T18:41:57.547Z,70.70
2018-02-10T18:44:25.792Z,73.57
2018-02-10T18:46:53.739Z,67.23
2018-02-10T18:49:21.439Z,72.63
2018-02-10T18:51:49.076Z,75.93
2018-02-10T18:54:17.211Z,75.27
2018-02-10T18:56:45.332Z,78.33
2018-02-10T18:59:13.340Z,77.80
2018-02-10T19:01:40.993Z,74.27
2018-02-10T19:04:08.927Z,77.60
2018-02-10T19:06:36.991Z,83.93
2018-02-10T19:09:05.147Z,77.77
2018-02-10T19:11:33.531Z,80.47
2018-02-10T19:14:02.457Z,72.40
2018-02-10T19:16:32.122Z,74.97
2018-02-10T19:19:01.259Z,68.10
2018-02-10T19:21:29.600Z,71.87
2018-02-10T19:23:57.854Z,65.33
2018-02-10T19:26:25.836Z,72.23
2018-02-10T19:28:53.478Z,76.60
2018-02-10T19:31:21.068Z,75.67
2018-02-10T19:33:49.441Z,64.80
2018-02-10T19:36:17.869Z,71.10
2018-02-10T19:38:45.822Z,72.27
2018-02-10T19:41:13.447Z,67.17
2018-02-10T19:43:41.020Z,72.87
2018-02-10T19:46:08.631Z,69.87
2018-02-10T19:48:36.866Z,65.87
2018-02-10T19:51:04.484Z,68.87
2018-02-10T19:53:32.058Z,76.80
2018-02-10T19:55:59.675Z,72.07
2018-02-10T19:58:27.274Z,69.40
2018-02-10T20:00:54.863Z,67.53
2018-02-10T20:03:23.239Z,73.67
2018-02-10T20:05:51.570Z,69.47
2018-02-10T20:08:19.132Z,68.13
2018-02-10T20:10:46.747Z,73.03
2018-02-10T20:13:14.352Z,74.37
2018-02-10T20:15:41.926Z,72.53
2018-02-10T20:18:09.535Z,74.77
2018-02-10T20:20:37.914Z,71.70
2018-02-10T20:23:05.498Z,72.47
2018-02-10T20:25:33.071Z,74.57
2018-02-10T20:28:00.691Z,78.63
2018-02-10T20:30:28.304Z,71.07
2018-02-10T20:32:55.881Z,65.70
2018-02-10T20:35:23.453Z,64.93
2018-02-10T20:37:51.058Z,67.83
2018-02-10T20:40:18.627Z,74.50
2018-02-10T20:42:46.232Z,84.03
2018-02-10T20:45:13.812Z,69.07
2018-02-10T20:47:42.284Z,74.97
2018-02-10T20:50:09.862Z,69.47
2018-02-10T20:52:38.194Z,77.43
2018-02-10T20:55:05.786Z,71.07
2018-02-10T20:57:33.426Z,67.40
2018-02-10T21:00:01.019Z,74.43
2018-02-10T21:02:28.589Z,69.07
2018-02-10T21:04:56.197Z,80.43
2018-02-10T21:07:23.777Z,78.17
2018-02-10T21:09:51.377Z,81.60
2018-02-10T21:12:18.953Z,72.37
2018-02-10T21:14:46.582Z,74.50
2018-02-10T21:17:14.983Z,74.60
2018-02-10T21:19:42.583Z,72.70
2018-02-10T21:22:10.159Z,72.47
2018-02-10T21:24:37.758Z,76.33
2018-02-10T21:27:05.339Z,63.27
2018-02-10T21:29:32.951Z,70.40
2018-02-10T21:32:00.522Z,68.90
2018-02-10T21:34:28.128Z,69.63
2018-02-10T21:36:55.714Z,63.80
2018-02-10T21:39:24.089Z,65.33
2018-02-10T21:41:51.698Z,65.40
2018-02-10T21:44:20.040Z,57.63
2018-02-10T21:46:47.647Z,62.17
2018-02-10T21:49:15.252Z,58.93
2018-02-10T21:51:42.855Z,58.93
2018-02-10T21:54:10.422Z,53.40
2018-02-10T21:56:38.027Z,53.73
2018-02-10T21:59:05.645Z,53.97
2018-02-10T22:01:33.243Z,46.87
2018-02-10T22:04:00.846Z,47.60
2018-02-10T22:06:28.461Z,46.83
2018-02-10T22:08:56.032Z,48.27
2018-02-10T22:11:23.633Z,39.47
2018-02-10T22:13:51.606Z,41.23
2018-02-10T22:16:19.176Z,44.43
2018-02-10T22:18:47.544Z,38.33
2018-02-10T22:21:15.106Z,42.00
2018-02-10T22:23:42.704Z,35.70
2018-02-10T22:26:10.342Z,36.10
2018-02-10T22:28:37.953Z,34.33
2018-02-10T22:31:05.524Z,34.23
2018-02-10T22:33:33.125Z,31.03
2018-02-10T22:36:00.693Z,30.97
2018-02-10T22:38:29.070Z,33.67
2018-02-10T22:40:57.398Z,28.97
2018-02-10T22:43:24.968Z,26.47
2018-02-10T22:45:52.571Z,25.17
2018-02-10T22:48:20.196Z,29.40
2018-02-10T22:50:47.754Z,28.80
2018-02-10T22:53:15.473Z,24.13
2018-02-10T22:55:43.189Z,24.97
2018-02-10T22:58:10.752Z,22.80
2018-02-10T23:00:38.405Z,24.10
2018-02-10T23:03:05.967Z,19.13
2018-02-10T23:05:33.574Z,23.03
2018-02-10T23:08:02.843Z,16.33
2018-02-10T23:10:30.455Z,22.10
2018-02-10T23:12:58.025Z,15.43
2018-02-10T23:15:26.434Z,16.50
2018-02-10T23:17:54.695Z,16.67
2018-02-10T23:20:22.613Z,16.43
2018-02-10T23:22:50.326Z,14.43
2018-02-10T23:25:28.841Z,13.20
2018-02-10T23:27:57.434Z,16.77
2018-02-10T23:30:30.352Z,14.93
2018-02-10T23:32:57.941Z,16.07
2018-02-10T23:35:43.058Z,15.17
2018-02-10T23:38:12.003Z,13.37
2018-02-10T23:40:39.651Z,14.13
2018-02-10T23:43:07.376Z,14.40
2018-02-10T23:45:34.938Z,15.27
2018-02-10T23:48:02.542Z,16.97
2018-02-10T23:50:30.234Z,13.70
2018-02-10T23:52:58.200Z,14.13
2018-02-10T23:55:25.759Z,17.73
2018-02-10T23:57:53.384Z,12.90
